sensor_id;sensor_type;location;lat;lon;timestamp;P1;durP1;ratioP1;P2;durP2;ratioP2
29218;SDS011;16421;50.202;7.852;2024-03-25T00:02:36;6.50;;;1.88;;
29218;SDS011;16421;50.202;7.852;2024-03-25T00:07:39;7.75;;;2.40;;
29218;SDS011;16421;50.202;7.852;2024-03-25T00:12:41;3.65;;;1.48;;
29218;SDS011;16421;50.202;7.852;2024-03-25T00:17:45;3.72;;;1.65;;
29218;SDS011;16421;50.202;7.852;2024-03-25T00:22:47;6.38;;;2.20;;
29218;SDS011;16421;50.202;7.852;2024-03-25T00:27:50;5.22;;;1.77;;
29218;SDS011;16421;50.202;7.852;2024-03-25T00:32:53;4.68;;;1.65;;
29218;SDS011;16421;50.202;7.852;2024-03-25T00:37:56;4.18;;;1.90;;
29218;SDS011;16421;50.202;7.852;2024-03-25T00:42:59;6.90;;;1.83;;
29218;SDS011;16421;50.202;7.852;2024-03-25T00:48:02;5.65;;;1.85;;
29218;SDS011;16421;50.202;7.852;2024-03-25T00:53:05;4.82;;;1.55;;
29218;SDS011;16421;50.202;7.852;2024-03-25T00:58:08;6.13;;;1.77;;
29218;SDS011;16421;50.202;7.852;2024-03-25T01:03:12;6.20;;;1.90;;
29218;SDS011;16421;50.202;7.852;2024-03-25T01:08:14;8.30;;;1.83;;
29218;SDS011;16421;50.202;7.852;2024-03-25T01:13:17;3.10;;;1.52;;
29218;SDS011;16421;50.202;7.852;2024-03-25T01:18:20;4.07;;;1.60;;
29218;SDS011;16421;50.202;7.852;2024-03-25T01:23:23;6.85;;;2.10;;
29218;SDS011;16421;50.202;7.852;2024-03-25T01:28:26;4.40;;;1.95;;
29218;SDS011;16421;50.202;7.852;2024-03-25T01:33:29;7.43;;;2.00;;
29218;SDS011;16421;50.202;7.852;2024-03-25T01:38:32;4.88;;;2.22;;
29218;SDS011;16421;50.202;7.852;2024-03-25T01:43:35;7.38;;;1.80;;
29218;SDS011;16421;50.202;7.852;2024-03-25T01:48:38;2.72;;;1.13;;
29218;SDS011;16421;50.202;7.852;2024-03-25T01:53:41;7.22;;;1.90;;
29218;SDS011;16421;50.202;7.852;2024-03-25T01:58:43;6.97;;;1.70;;
29218;SDS011;16421;50.202;7.852;2024-03-25T02:03:47;2.33;;;1.50;;
29218;SDS011;16421;50.202;7.852;2024-03-25T02:08:50;5.68;;;1.80;;
29218;SDS011;16421;50.202;7.852;2024-03-25T02:13:54;4.47;;;1.60;;
29218;SDS011;16421;50.202;7.852;2024-03-25T02:18:58;5.43;;;1.70;;
29218;SDS011;16421;50.202;7.852;2024-03-25T02:24:00;6.45;;;2.00;;
29218;SDS011;16421;50.202;7.852;2024-03-25T02:29:10;6.82;;;2.08;;
29218;SDS011;16421;50.202;7.852;2024-03-25T02:34:12;5.97;;;1.87;;
29218;SDS011;16421;50.202;7.852;2024-03-25T02:39:14;6.53;;;1.80;;
29218;SDS011;16421;50.202;7.852;2024-03-25T02:44:18;3.80;;;1.60;;
29218;SDS011;16421;50.202;7.852;2024-03-25T02:49:21;4.32;;;1.40;;
29218;SDS011;16421;50.202;7.852;2024-03-25T02:54:23;4.53;;;2.10;;
29218;SDS011;16421;50.202;7.852;2024-03-25T02:59:27;5.45;;;1.90;;
29218;SDS011;16421;50.202;7.852;2024-03-25T03:04:29;9.45;;;2.28;;
29218;SDS011;16421;50.202;7.852;2024-03-25T03:09:31;7.03;;;1.95;;
29218;SDS011;16421;50.202;7.852;2024-03-25T03:14:35;8.52;;;2.67;;
29218;SDS011;16421;50.202;7.852;2024-03-25T03:19:37;4.45;;;1.60;;
29218;SDS011;16421;50.202;7.852;2024-03-25T03:24:40;7.32;;;2.38;;
29218;SDS011;16421;50.202;7.852;2024-03-25T03:29:43;7.88;;;2.53;;
29218;SDS011;16421;50.202;7.852;2024-03-25T03:34:46;5.47;;;1.73;;
29218;SDS011;16421;50.202;7.852;2024-03-25T03:39:48;6.93;;;2.50;;
29218;SDS011;16421;50.202;7.852;2024-03-25T03:44:52;12.13;;;2.55;;
29218;SDS011;16421;50.202;7.852;2024-03-25T03:49:54;4.95;;;1.90;;
29218;SDS011;16421;50.202;7.852;2024-03-25T03:54:57;6.57;;;2.00;;
29218;SDS011;16421;50.202;7.852;2024-03-25T04:00:01;6.82;;;1.80;;
29218;SDS011;16421;50.202;7.852;2024-03-25T04:05:12;4.75;;;1.70;;
29218;SDS011;16421;50.202;7.852;2024-03-25T04:10:15;7.03;;;1.92;;
29218;SDS011;16421;50.202;7.852;2024-03-25T04:15:18;2.85;;;1.33;;
29218;SDS011;16421;50.202;7.852;2024-03-25T04:20:21;3.38;;;1.80;;
29218;SDS011;16421;50.202;7.852;2024-03-25T04:25:24;4.50;;;1.80;;
29218;SDS011;16421;50.202;7.852;2024-03-25T04:30:28;1.60;;;1.10;;
29218;SDS011;16421;50.202;7.852;2024-03-25T04:35:30;3.65;;;1.52;;
29218;SDS011;16421;50.202;7.852;2024-03-25T04:40:32;1.80;;;1.10;;
29218;SDS011;16421;50.202;7.852;2024-03-25T04:45:35;2.53;;;1.25;;
29218;SDS011;16421;50.202;7.852;2024-03-25T04:50:37;2.28;;;1.05;;
29218;SDS011;16421;50.202;7.852;2024-03-25T04:55:39;1.55;;;0.90;;
29218;SDS011;16421;50.202;7.852;2024-03-25T05:00:42;1.52;;;1.00;;
29218;SDS011;16421;50.202;7.852;2024-03-25T05:05:43;2.97;;;1.02;;
29218;SDS011;16421;50.202;7.852;2024-03-25T05:10:45;2.88;;;0.80;;
29218;SDS011;16421;50.202;7.852;2024-03-25T05:15:50;1.52;;;1.10;;
29218;SDS011;16421;50.202;7.852;2024-03-25T05:20:52;2.67;;;1.17;;
29218;SDS011;16421;50.202;7.852;2024-03-25T05:25:53;2.80;;;1.10;;
29218;SDS011;16421;50.202;7.852;2024-03-25T05:30:57;2.35;;;1.15;;
29218;SDS011;16421;50.202;7.852;2024-03-25T05:36:06;1.38;;;1.13;;
29218;SDS011;16421;50.202;7.852;2024-03-25T05:41:08;3.97;;;1.23;;
29218;SDS011;16421;50.202;7.852;2024-03-25T05:46:11;3.85;;;1.13;;
29218;SDS011;16421;50.202;7.852;2024-03-25T05:51:12;3.10;;;1.30;;
29218;SDS011;16421;50.202;7.852;2024-03-25T05:56:14;3.75;;;1.58;;
29218;SDS011;16421;50.202;7.852;2024-03-25T06:01:17;2.42;;;1.30;;
29218;SDS011;16421;50.202;7.852;2024-03-25T06:06:18;3.95;;;1.20;;
29218;SDS011;16421;50.202;7.852;2024-03-25T06:11:20;4.10;;;1.95;;
29218;SDS011;16421;50.202;7.852;2024-03-25T06:16:23;5.10;;;1.80;;
29218;SDS011;16421;50.202;7.852;2024-03-25T06:21:26;6.40;;;2.22;;
29218;SDS011;16421;50.202;7.852;2024-03-25T06:26:28;3.80;;;1.85;;
29218;SDS011;16421;50.202;7.852;2024-03-25T06:31:30;2.75;;;1.60;;
29218;SDS011;16421;50.202;7.852;2024-03-25T06:36:47;3.88;;;2.10;;
29218;SDS011;16421;50.202;7.852;2024-03-25T06:41:49;4.28;;;2.20;;
29218;SDS011;16421;50.202;7.852;2024-03-25T06:46:51;3.85;;;1.73;;
29218;SDS011;16421;50.202;7.852;2024-03-25T06:51:53;3.55;;;2.20;;
29218;SDS011;16421;50.202;7.852;2024-03-25T06:56:55;3.28;;;1.95;;
29218;SDS011;16421;50.202;7.852;2024-03-25T07:01:57;4.80;;;1.95;;
29218;SDS011;16421;50.202;7.852;2024-03-25T07:06:59;3.50;;;1.05;;
29218;SDS011;16421;50.202;7.852;2024-03-25T07:12:00;3.83;;;1.00;;
29218;SDS011;16421;50.202;7.852;2024-03-25T07:17:03;2.83;;;1.05;;
29218;SDS011;16421;50.202;7.852;2024-03-25T07:22:05;5.20;;;1.77;;
29218;SDS011;16421;50.202;7.852;2024-03-25T07:27:06;3.88;;;1.85;;
29218;SDS011;16421;50.202;7.852;2024-03-25T07:32:09;4.20;;;1.95;;
29218;SDS011;16421;50.202;7.852;2024-03-25T07:37:10;3.50;;;1.67;;
29218;SDS011;16421;50.202;7.852;2024-03-25T07:42:12;5.65;;;1.80;;
29218;SDS011;16421;50.202;7.852;2024-03-25T07:47:15;8.80;;;2.40;;
29218;SDS011;16421;50.202;7.852;2024-03-25T07:52:16;5.70;;;1.50;;
29218;SDS011;16421;50.202;7.852;2024-03-25T07:57:18;6.00;;;1.67;;
29218;SDS011;16421;50.202;7.852;2024-03-25T08:02:21;4.20;;;1.40;;
29218;SDS011;16421;50.202;7.852;2024-03-25T08:07:22;2.08;;;0.95;;
29218;SDS011;16421;50.202;7.852;2024-03-25T08:12:24;2.33;;;0.90;;
29218;SDS011;16421;50.202;7.852;2024-03-25T08:17:27;5.13;;;1.20;;
29218;SDS011;16421;50.202;7.852;2024-03-25T08:22:28;3.67;;;1.50;;
29218;SDS011;16421;50.202;7.852;2024-03-25T08:27:30;7.05;;;1.75;;
29218;SDS011;16421;50.202;7.852;2024-03-25T08:32:32;6.03;;;1.58;;
29218;SDS011;16421;50.202;7.852;2024-03-25T08:37:34;4.90;;;0.90;;
29218;SDS011;16421;50.202;7.852;2024-03-25T08:42:35;3.20;;;1.30;;
29218;SDS011;16421;50.202;7.852;2024-03-25T08:47:38;4.00;;;1.35;;
29218;SDS011;16421;50.202;7.852;2024-03-25T08:52:40;2.92;;;1.10;;
29218;SDS011;16421;50.202;7.852;2024-03-25T08:57:41;4.85;;;0.93;;
29218;SDS011;16421;50.202;7.852;2024-03-25T09:02:44;3.13;;;0.93;;
29218;SDS011;16421;50.202;7.852;2024-03-25T09:07:45;2.13;;;0.95;;
29218;SDS011;16421;50.202;7.852;2024-03-25T09:12:49;2.15;;;0.80;;
29218;SDS011;16421;50.202;7.852;2024-03-25T09:17:52;2.75;;;1.00;;
29218;SDS011;16421;50.202;7.852;2024-03-25T09:22:54;4.07;;;1.20;;
29218;SDS011;16421;50.202;7.852;2024-03-25T09:27:55;1.40;;;0.82;;
29218;SDS011;16421;50.202;7.852;2024-03-25T09:32:58;2.92;;;1.27;;
29218;SDS011;16421;50.202;7.852;2024-03-25T09:38:00;3.33;;;1.23;;
29218;SDS011;16421;50.202;7.852;2024-03-25T09:43:01;3.05;;;0.88;;
29218;SDS011;16421;50.202;7.852;2024-03-25T09:48:05;1.85;;;0.73;;
29218;SDS011;16421;50.202;7.852;2024-03-25T09:53:08;2.03;;;0.98;;
29218;SDS011;16421;50.202;7.852;2024-03-25T09:58:10;2.20;;;0.98;;
29218;SDS011;16421;50.202;7.852;2024-03-25T10:03:13;2.85;;;1.10;;
29218;SDS011;16421;50.202;7.852;2024-03-25T10:08:19;2.03;;;1.00;;
29218;SDS011;16421;50.202;7.852;2024-03-25T10:13:21;1.92;;;0.85;;
29218;SDS011;16421;50.202;7.852;2024-03-25T10:18:24;2.88;;;1.05;;
29218;SDS011;16421;50.202;7.852;2024-03-25T10:23:25;2.20;;;0.80;;
29218;SDS011;16421;50.202;7.852;2024-03-25T10:28:27;0.73;;;0.45;;
29218;SDS011;16421;50.202;7.852;2024-03-25T10:33:30;3.08;;;0.90;;
29218;SDS011;16421;50.202;7.852;2024-03-25T10:38:31;2.58;;;1.10;;
29218;SDS011;16421;50.202;7.852;2024-03-25T10:43:34;3.40;;;0.93;;
29218;SDS011;16421;50.202;7.852;2024-03-25T10:48:39;2.40;;;1.00;;
29218;SDS011;16421;50.202;7.852;2024-03-25T10:53:43;3.95;;;1.38;;
29218;SDS011;16421;50.202;7.852;2024-03-25T10:58:47;1.25;;;0.60;;
29218;SDS011;16421;50.202;7.852;2024-03-25T11:03:50;1.20;;;0.85;;
29218;SDS011;16421;50.202;7.852;2024-03-25T11:08:55;2.05;;;0.90;;
29218;SDS011;16421;50.202;7.852;2024-03-25T11:13:57;1.15;;;0.70;;
29218;SDS011;16421;50.202;7.852;2024-03-25T11:19:01;2.30;;;0.98;;
29218;SDS011;16421;50.202;7.852;2024-03-25T11:24:06;1.08;;;0.60;;
29218;SDS011;16421;50.202;7.852;2024-03-25T11:29:08;1.08;;;0.45;;
29218;SDS011;16421;50.202;7.852;2024-03-25T11:34:11;2.75;;;1.00;;
29218;SDS011;16421;50.202;7.852;2024-03-25T11:39:13;3.53;;;1.30;;
29218;SDS011;16421;50.202;7.852;2024-03-25T11:44:14;1.92;;;0.75;;
29218;SDS011;16421;50.202;7.852;2024-03-25T11:49:18;1.65;;;0.90;;
29218;SDS011;16421;50.202;7.852;2024-03-25T11:54:21;1.35;;;0.82;;
29218;SDS011;16421;50.202;7.852;2024-03-25T11:59:22;2.13;;;0.73;;
29218;SDS011;16421;50.202;7.852;2024-03-25T12:04:26;1.35;;;0.50;;
29218;SDS011;16421;50.202;7.852;2024-03-25T12:09:28;3.50;;;1.05;;
29218;SDS011;16421;50.202;7.852;2024-03-25T12:14:50;2.63;;;1.00;;
29218;SDS011;16421;50.202;7.852;2024-03-25T12:20:01;2.60;;;1.15;;
29218;SDS011;16421;50.202;7.852;2024-03-25T12:25:04;2.20;;;0.63;;
29218;SDS011;16421;50.202;7.852;2024-03-25T12:30:07;5.75;;;1.38;;
29218;SDS011;16421;50.202;7.852;2024-03-25T12:35:11;2.30;;;0.75;;
29218;SDS011;16421;50.202;7.852;2024-03-25T12:40:24;2.40;;;0.88;;
29218;SDS011;16421;50.202;7.852;2024-03-25T12:45:26;5.68;;;1.13;;
29218;SDS011;16421;50.202;7.852;2024-03-25T12:50:29;2.55;;;1.10;;
29218;SDS011;16421;50.202;7.852;2024-03-25T12:55:31;1.70;;;0.70;;
29218;SDS011;16421;50.202;7.852;2024-03-25T13:00:32;1.65;;;0.75;;
29218;SDS011;16421;50.202;7.852;2024-03-25T13:05:35;1.42;;;0.70;;
29218;SDS011;16421;50.202;7.852;2024-03-25T13:10:37;1.10;;;0.65;;
29218;SDS011;16421;50.202;7.852;2024-03-25T13:15:38;1.55;;;1.17;;
29218;SDS011;16421;50.202;7.852;2024-03-25T13:20:41;1.70;;;1.00;;
29218;SDS011;16421;50.202;7.852;2024-03-25T13:25:43;3.45;;;0.90;;
29218;SDS011;16421;50.202;7.852;2024-03-25T13:30:45;1.85;;;0.80;;
29218;SDS011;16421;50.202;7.852;2024-03-25T13:35:48;2.50;;;0.50;;
29218;SDS011;16421;50.202;7.852;2024-03-25T13:40:49;1.73;;;0.60;;
29218;SDS011;16421;50.202;7.852;2024-03-25T13:45:50;2.70;;;0.90;;
29218;SDS011;16421;50.202;7.852;2024-03-25T13:50:54;1.83;;;0.93;;
29218;SDS011;16421;50.202;7.852;2024-03-25T13:55:56;1.67;;;0.88;;
29218;SDS011;16421;50.202;7.852;2024-03-25T14:00:57;2.58;;;0.80;;
29218;SDS011;16421;50.202;7.852;2024-03-25T14:06:00;1.60;;;0.63;;
29218;SDS011;16421;50.202;7.852;2024-03-25T14:11:02;1.25;;;0.63;;
29218;SDS011;16421;50.202;7.852;2024-03-25T14:16:04;1.70;;;0.60;;
29218;SDS011;16421;50.202;7.852;2024-03-25T14:21:07;0.93;;;0.55;;
29218;SDS011;16421;50.202;7.852;2024-03-25T14:26:09;1.73;;;0.52;;
29218;SDS011;16421;50.202;7.852;2024-03-25T14:31:10;1.52;;;0.60;;
29218;SDS011;16421;50.202;7.852;2024-03-25T14:36:13;1.77;;;0.75;;
29218;SDS011;16421;50.202;7.852;2024-03-25T14:41:17;2.08;;;0.43;;
29218;SDS011;16421;50.202;7.852;2024-03-25T14:46:20;0.47;;;0.40;;
29218;SDS011;16421;50.202;7.852;2024-03-25T14:51:23;0.68;;;0.40;;
29218;SDS011;16421;50.202;7.852;2024-03-25T14:56:24;1.65;;;0.68;;
29218;SDS011;16421;50.202;7.852;2024-03-25T15:01:26;2.20;;;0.50;;
29218;SDS011;16421;50.202;7.852;2024-03-25T15:06:29;4.03;;;0.68;;
29218;SDS011;16421;50.202;7.852;2024-03-25T15:11:31;2.15;;;0.65;;
29218;SDS011;16421;50.202;7.852;2024-03-25T15:16:32;3.40;;;0.60;;
29218;SDS011;16421;50.202;7.852;2024-03-25T15:21:35;2.67;;;0.73;;
29218;SDS011;16421;50.202;7.852;2024-03-25T15:26:37;1.63;;;0.80;;
29218;SDS011;16421;50.202;7.852;2024-03-25T15:31:38;3.83;;;1.35;;
29218;SDS011;16421;50.202;7.852;2024-03-25T15:36:41;3.25;;;1.08;;
29218;SDS011;16421;50.202;7.852;2024-03-25T15:41:43;3.35;;;0.80;;
29218;SDS011;16421;50.202;7.852;2024-03-25T15:46:44;1.10;;;0.50;;
29218;SDS011;16421;50.202;7.852;2024-03-25T15:51:47;0.90;;;0.60;;
29218;SDS011;16421;50.202;7.852;2024-03-25T15:56:48;1.67;;;0.50;;
29218;SDS011;16421;50.202;7.852;2024-03-25T16:01:50;2.70;;;0.95;;
29218;SDS011;16421;50.202;7.852;2024-03-25T16:06:53;3.25;;;1.50;;
29218;SDS011;16421;50.202;7.852;2024-03-25T16:11:54;3.92;;;1.13;;
29218;SDS011;16421;50.202;7.852;2024-03-25T16:16:56;2.75;;;1.33;;
29218;SDS011;16421;50.202;7.852;2024-03-25T16:21:59;7.70;;;3.10;;
29218;SDS011;16421;50.202;7.852;2024-03-25T16:27:00;3.42;;;1.58;;
29218;SDS011;16421;50.202;7.852;2024-03-25T16:32:01;2.83;;;1.13;;
29218;SDS011;16421;50.202;7.852;2024-03-25T16:37:05;1.95;;;1.00;;
29218;SDS011;16421;50.202;7.852;2024-03-25T16:42:06;2.03;;;1.10;;
29218;SDS011;16421;50.202;7.852;2024-03-25T16:47:37;3.08;;;1.20;;
29218;SDS011;16421;50.202;7.852;2024-03-25T16:53:05;1.30;;;0.90;;
29218;SDS011;16421;50.202;7.852;2024-03-25T16:58:07;2.00;;;1.00;;
29218;SDS011;16421;50.202;7.852;2024-03-25T17:03:08;1.20;;;0.80;;
29218;SDS011;16421;50.202;7.852;2024-03-25T17:08:11;2.15;;;1.35;;
29218;SDS011;16421;50.202;7.852;2024-03-25T17:13:13;2.35;;;1.33;;
29218;SDS011;16421;50.202;7.852;2024-03-25T17:23:19;2.38;;;1.27;;
29218;SDS011;16421;50.202;7.852;2024-03-25T17:28:27;2.80;;;1.40;;
29218;SDS011;16421;50.202;7.852;2024-03-25T17:33:40;2.90;;;1.55;;
29218;SDS011;16421;50.202;7.852;2024-03-25T17:38:51;6.00;;;2.65;;
29218;SDS011;16421;50.202;7.852;2024-03-25T17:43:53;4.20;;;2.63;;
29218;SDS011;16421;50.202;7.852;2024-03-25T17:48:57;4.03;;;2.33;;
29218;SDS011;16421;50.202;7.852;2024-03-25T17:54:00;3.13;;;2.08;;
29218;SDS011;16421;50.202;7.852;2024-03-25T17:59:01;1.30;;;1.08;;
29218;SDS011;16421;50.202;7.852;2024-03-25T18:04:03;2.53;;;1.30;;
29218;SDS011;16421;50.202;7.852;2024-03-25T18:09:06;4.38;;;2.63;;
29218;SDS011;16421;50.202;7.852;2024-03-25T18:14:08;7.75;;;4.15;;
29218;SDS011;16421;50.202;7.852;2024-03-25T18:19:09;7.70;;;4.22;;
29218;SDS011;16421;50.202;7.852;2024-03-25T18:24:12;6.85;;;3.50;;
29218;SDS011;16421;50.202;7.852;2024-03-25T18:29:14;5.45;;;2.88;;
29218;SDS011;16421;50.202;7.852;2024-03-25T18:34:15;3.35;;;2.28;;
29218;SDS011;16421;50.202;7.852;2024-03-25T18:39:18;6.82;;;2.78;;
29218;SDS011;16421;50.202;7.852;2024-03-25T18:44:20;3.42;;;2.00;;
29218;SDS011;16421;50.202;7.852;2024-03-25T18:49:21;5.50;;;2.67;;
29218;SDS011;16421;50.202;7.852;2024-03-25T18:54:24;4.57;;;2.22;;
29218;SDS011;16421;50.202;7.852;2024-03-25T18:59:26;4.00;;;2.22;;
29218;SDS011;16421;50.202;7.852;2024-03-25T19:04:27;3.88;;;1.75;;
29218;SDS011;16421;50.202;7.852;2024-03-25T19:09:30;3.83;;;1.98;;
29218;SDS011;16421;50.202;7.852;2024-03-25T19:14:32;2.80;;;1.90;;
29218;SDS011;16421;50.202;7.852;2024-03-25T19:19:33;3.35;;;1.83;;
29218;SDS011;16421;50.202;7.852;2024-03-25T19:24:36;4.30;;;2.05;;
29218;SDS011;16421;50.202;7.852;2024-03-25T19:29:38;2.75;;;2.20;;
29218;SDS011;16421;50.202;7.852;2024-03-25T19:34:39;4.15;;;2.08;;
29218;SDS011;16421;50.202;7.852;2024-03-25T19:39:42;4.72;;;2.20;;
29218;SDS011;16421;50.202;7.852;2024-03-25T19:44:45;5.88;;;2.70;;
29218;SDS011;16421;50.202;7.852;2024-03-25T19:49:46;8.05;;;4.97;;
29218;SDS011;16421;50.202;7.852;2024-03-25T19:54:51;7.28;;;4.50;;
29218;SDS011;16421;50.202;7.852;2024-03-25T19:59:52;7.65;;;4.40;;
29218;SDS011;16421;50.202;7.852;2024-03-25T20:04:54;6.82;;;3.80;;
29218;SDS011;16421;50.202;7.852;2024-03-25T20:09:57;6.45;;;3.67;;
29218;SDS011;16421;50.202;7.852;2024-03-25T20:14:58;5.65;;;2.92;;
29218;SDS011;16421;50.202;7.852;2024-03-25T20:20:00;3.67;;;2.20;;
29218;SDS011;16421;50.202;7.852;2024-03-25T20:25:04;4.05;;;2.20;;
29218;SDS011;16421;50.202;7.852;2024-03-25T20:30:06;5.15;;;2.20;;
29218;SDS011;16421;50.202;7.852;2024-03-25T20:35:08;4.32;;;2.22;;
29218;SDS011;16421;50.202;7.852;2024-03-25T20:40:11;5.93;;;3.22;;
29218;SDS011;16421;50.202;7.852;2024-03-25T20:45:13;5.32;;;3.25;;
29218;SDS011;16421;50.202;7.852;2024-03-25T20:50:15;6.55;;;3.70;;
29218;SDS011;16421;50.202;7.852;2024-03-25T20:55:17;7.30;;;3.85;;
29218;SDS011;16421;50.202;7.852;2024-03-25T21:00:19;6.35;;;3.65;;
29218;SDS011;16421;50.202;7.852;2024-03-25T21:05:20;7.32;;;3.50;;
29218;SDS011;16421;50.202;7.852;2024-03-25T21:10:23;6.20;;;3.38;;
29218;SDS011;16421;50.202;7.852;2024-03-25T21:15:25;6.60;;;2.90;;
29218;SDS011;16421;50.202;7.852;2024-03-25T21:20:26;4.60;;;2.90;;
29218;SDS011;16421;50.202;7.852;2024-03-25T21:25:29;4.00;;;2.50;;
29218;SDS011;16421;50.202;7.852;2024-03-25T21:30:30;4.38;;;2.40;;
29218;SDS011;16421;50.202;7.852;2024-03-25T21:35:32;4.30;;;2.50;;
29218;SDS011;16421;50.202;7.852;2024-03-25T21:40:35;4.38;;;2.35;;
29218;SDS011;16421;50.202;7.852;2024-03-25T21:45:36;5.30;;;2.60;;
29218;SDS011;16421;50.202;7.852;2024-03-25T21:50:38;6.57;;;3.60;;
29218;SDS011;16421;50.202;7.852;2024-03-25T21:55:40;7.40;;;3.25;;
29218;SDS011;16421;50.202;7.852;2024-03-25T22:00:42;7.45;;;3.50;;
29218;SDS011;16421;50.202;7.852;2024-03-25T22:05:43;7.50;;;3.28;;
29218;SDS011;16421;50.202;7.852;2024-03-25T22:10:46;8.32;;;2.80;;
29218;SDS011;16421;50.202;7.852;2024-03-25T22:15:56;5.47;;;2.60;;
29218;SDS011;16421;50.202;7.852;2024-03-25T22:21:02;4.78;;;2.30;;
29218;SDS011;16421;50.202;7.852;2024-03-25T22:26:05;4.60;;;1.93;;
29218;SDS011;16421;50.202;7.852;2024-03-25T22:31:06;3.28;;;1.80;;
29218;SDS011;16421;50.202;7.852;2024-03-25T22:36:08;3.25;;;2.08;;
29218;SDS011;16421;50.202;7.852;2024-03-25T22:41:11;2.25;;;1.50;;
29218;SDS011;16421;50.202;7.852;2024-03-25T22:46:12;1.55;;;1.00;;
29218;SDS011;16421;50.202;7.852;2024-03-25T22:51:13;2.58;;;1.38;;
29218;SDS011;16421;50.202;7.852;2024-03-25T22:56:16;2.42;;;1.23;;
29218;SDS011;16421;50.202;7.852;2024-03-25T23:01:18;2.53;;;1.10;;
29218;SDS011;16421;50.202;7.852;2024-03-25T23:06:19;2.55;;;1.40;;
29218;SDS011;16421;50.202;7.852;2024-03-25T23:11:22;2.58;;;1.05;;
29218;SDS011;16421;50.202;7.852;2024-03-25T23:16:23;1.83;;;1.33;;
29218;SDS011;16421;50.202;7.852;2024-03-25T23:21:25;2.88;;;1.60;;
29218;SDS011;16421;50.202;7.852;2024-03-25T23:26:28;1.67;;;1.30;;
29218;SDS011;16421;50.202;7.852;2024-03-25T23:31:29;3.22;;;1.20;;
29218;SDS011;16421;50.202;7.852;2024-03-25T23:36:31;2.15;;;1.55;;
29218;SDS011;16421;50.202;7.852;2024-03-25T23:41:33;1.58;;;1.30;;
29218;SDS011;16421;50.202;7.852;2024-03-25T23:46:35;3.00;;;1.27;;
29218;SDS011;16421;50.202;7.852;2024-03-25T23:51:37;1.65;;;1.05;;
29218;SDS011;16421;50.202;7.852;2024-03-25T23:56:39;1.83;;;1.30;;
